Time;durP1;ratioP1;P1;durP2;ratioP2;P2;SDS_P1;SDS_P2;PMS_P1;PMS_P2;Temp;Humidity;BMP_temperature;BMP_pressure;BME280_temperature;BME280_humidity;BME280_pressure;Samples;Min_cycle;Max_cycle;Signal;HPM_P1;HPM_P2
2022/08/02 00:00:15;;;;;;;16.40;15.00;;;;;;;18.67;100.00;98924.27;105275;1268;61979;-71
2022/08/02 00:03:01;;;;;;;16.20;15.00;;;;;;;18.65;100.00;98926.37;105230;1268;78785;-69
2022/08/02 00:05:27;;;;;;;16.70;15.40;;;;;;;18.63;100.00;98925.68;105041;1268;62174;-69
2022/08/02 00:07:53;;;;;;;16.60;15.20;;;;;;;18.60;100.00;98927.30;105289;1269;62497;-68
2022/08/02 00:10:19;;;;;;;15.40;14.20;;;;;;;18.58;100.00;98928.06;105243;1268;62161;-69
2022/08/02 00:12:45;;;;;;;15.10;13.90;;;;;;;18.57;100.00;98926.04;105275;1268;62303;-69
2022/08/02 00:15:11;;;;;;;16.60;14.80;;;;;;;18.52;100.00;98923.26;105194;1268;62138;-69
2022/08/02 00:17:37;;;;;;;16.40;15.00;;;;;;;18.49;100.00;98921.60;105245;1268;62008;-70
2022/08/02 00:20:04;;;;;;;16.90;15.20;;;;;;;18.46;100.00;98922.13;105282;1268;62290;-69
2022/08/02 00:22:30;;;;;;;17.50;15.90;;;;;;;18.42;100.00;98924.55;105020;1274;62083;-68
2022/08/02 00:24:56;;;;;;;16.80;15.40;;;;;;;18.39;100.00;98925.41;105016;1273;62210;-69
2022/08/02 00:27:22;;;;;;;15.50;14.30;;;;;;;18.36;100.00;98928.08;105284;1268;62216;-69
2022/08/02 00:29:50;;;;;;;16.10;14.80;;;;;;;18.32;100.00;98933.33;105271;1268;62204;-69
2022/08/02 00:32:17;;;;;;;16.30;14.90;;;;;;;18.28;100.00;98940.66;105227;1268;62777;-70
2022/08/02 00:34:42;;;;;;;16.10;14.90;;;;;;;18.21;100.00;98938.00;105242;1268;62221;-69
2022/08/02 00:37:08;;;;;;;15.10;13.90;;;;;;;18.16;100.00;98939.41;105222;1268;62213;-69
2022/08/02 00:39:35;;;;;;;16.40;15.00;;;;;;;18.12;100.00;98935.73;105264;1268;62168;-69
2022/08/02 00:42:03;;;;;;;16.60;15.40;;;;;;;18.09;100.00;98943.59;105204;1271;62158;-69
2022/08/02 00:44:29;;;;;;;15.90;14.50;;;;;;;18.08;100.00;98943.02;105165;1272;62225;-69
2022/08/02 00:46:55;;;;;;;16.60;15.30;;;;;;;18.08;100.00;98948.86;105240;1268;62130;-68
2022/08/02 00:49:21;;;;;;;15.10;13.90;;;;;;;18.09;100.00;98946.98;105266;1268;62200;-69
2022/08/02 00:51:47;;;;;;;16.10;14.70;;;;;;;18.10;100.00;98952.08;105006;1268;62190;-69
2022/08/02 00:54:13;;;;;;;16.00;14.70;;;;;;;18.11;100.00;98950.16;105254;1268;62206;-69
2022/08/02 00:56:40;;;;;;;15.90;14.40;;;;;;;18.12;100.00;98948.64;105023;1273;62119;-69
2022/08/02 00:59:06;;;;;;;15.50;14.30;;;;;;;18.13;100.00;98951.47;105234;1268;62068;-69
2022/08/02 01:01:37;;;;;;;16.00;14.60;;;;;;;18.14;100.00;98955.27;105255;1268;62335;-69
2022/08/02 01:04:12;;;;;;;15.40;14.10;;;;;;;18.17;100.00;98951.61;105252;1268;70115;-69
2022/08/02 01:06:40;;;;;;;15.30;14.00;;;;;;;18.20;100.00;98951.13;105329;1268;74229;-69
2022/08/02 01:09:08;;;;;;;16.20;14.70;;;;;;;18.22;100.00;98954.67;105060;1268;62094;-70
2022/08/02 01:11:35;;;;;;;16.20;14.70;;;;;;;18.24;100.00;98959.52;105282;1268;62154;-69
2022/08/02 01:14:08;;;;;;;16.90;15.40;;;;;;;18.26;100.00;98958.83;105308;1268;76460;-69
2022/08/02 01:16:43;;;;;;;16.60;15.00;;;;;;;18.27;100.00;98962.66;105294;1268;69937;-70
2022/08/02 01:19:32;;;;;;;17.00;15.50;;;;;;;18.28;100.00;98965.27;105261;1268;73388;-70
2022/08/02 01:22:13;;;;;;;14.80;13.50;;;;;;;18.29;100.00;98968.70;105264;1268;62194;-70
2022/08/02 01:24:58;;;;;;;15.30;14.10;;;;;;;18.31;100.00;98976.95;105382;1268;62065;-70
2022/08/02 01:27:47;;;;;;;13.80;12.70;;;;;;;18.32;100.00;98970.98;105313;1268;77209;-69
2022/08/02 01:30:14;;;;;;;14.90;13.50;;;;;;;18.32;100.00;98968.46;105011;1268;70330;-68
2022/08/02 01:32:48;;;;;;;14.60;13.40;;;;;;;18.31;100.00;98969.19;105228;1268;73289;-69
2022/08/02 01:35:20;;;;;;;13.40;12.10;;;;;;;18.33;100.00;98973.97;105158;1269;62343;-68
2022/08/02 01:37:57;;;;;;;12.90;11.80;;;;;;;18.33;100.00;98976.58;105241;1268;62082;-72
2022/08/02 01:40:29;;;;;;;12.60;11.60;;;;;;;18.35;100.00;98980.02;105281;1268;77073;-70
2022/08/02 01:42:58;;;;;;;12.70;11.60;;;;;;;18.36;100.00;98979.58;104977;1269;69505;-70
2022/08/02 01:45:28;;;;;;;11.50;10.60;;;;;;;18.36;100.00;98981.50;105280;1268;73589;-69
2022/08/02 01:47:55;;;;;;;11.20;10.20;;;;;;;18.36;100.00;98981.39;105233;1268;62141;-69
2022/08/02 01:50:26;;;;;;;11.80;10.90;;;;;;;18.35;100.00;98982.89;105266;1268;62004;-68
2022/08/02 01:52:56;;;;;;;12.50;11.50;;;;;;;18.34;100.00;98982.41;105254;1268;76134;-69
2022/08/02 01:55:31;;;;;;;12.30;11.10;;;;;;;18.35;100.00;98978.89;105341;1268;69584;-70
2022/08/02 01:58:02;;;;;;;11.80;10.70;;;;;;;18.35;100.00;98978.55;105284;1268;73293;-69
2022/08/02 02:00:32;;;;;;;12.60;11.40;;;;;;;18.35;100.00;98977.52;105286;1268;62162;-70
2022/08/02 02:03:00;;;;;;;12.70;11.60;;;;;;;18.33;100.00;98979.81;105235;1268;62025;-69
2022/08/02 02:05:30;;;;;;;12.20;11.20;;;;;;;18.34;100.00;98981.77;105064;1269;75993;-69
2022/08/02 02:07:57;;;;;;;;;;;;;;;18.33;100.00;98979.64;105291;1268;70329;-68
2022/08/02 02:10:30;;;;;;;12.40;11.30;;;;;;;18.32;100.00;98979.02;105015;1269;73426;-69
2022/08/02 02:13:03;;;;;;;12.60;11.40;;;;;;;18.30;100.00;98979.39;105242;1268;62173;-69
2022/08/02 02:15:31;;;;;;;11.30;10.30;;;;;;;18.29;100.00;98980.40;105227;1268;62120;-69
2022/08/02 02:18:01;;;;;;;12.40;11.30;;;;;;;18.29;100.00;98982.08;105356;1268;77292;-70
2022/08/02 02:20:27;;;;;;;12.60;11.60;;;;;;;18.29;100.00;98982.73;105290;1268;68519;-69
2022/08/02 02:22:54;;;;;;;12.60;11.30;;;;;;;18.30;100.00;98984.64;104956;1268;62120;-69
2022/08/02 02:25:21;;;;;;;12.80;11.70;;;;;;;18.29;100.00;98987.08;105224;1268;62425;-70
2022/08/02 02:28:03;;;;;;;12.90;11.70;;;;;;;18.28;100.00;98989.54;105290;1268;62069;-70
2022/08/02 02:30:32;;;;;;;14.00;11.90;;;;;;;18.28;100.00;98993.71;105274;1268;76222;-69
2022/08/02 02:33:00;;;;;;;12.10;11.00;;;;;;;18.27;100.00;98995.59;105400;1268;69263;-69
2022/08/02 02:35:29;;;;;;;11.80;10.90;;;;;;;18.27;100.00;98998.48;105362;1268;74512;-69
2022/08/02 02:37:57;;;;;;;12.50;11.10;;;;;;;18.27;100.00;98993.93;105287;1268;62085;-69
2022/08/02 02:40:26;;;;;;;12.40;11.30;;;;;;;18.25;100.00;98996.09;105417;1268;62090;-70
2022/08/02 02:42:53;;;;;;;12.60;11.30;;;;;;;18.25;100.00;98992.35;105519;1267;77178;-70
2022/08/02 02:45:20;;;;;;;13.80;12.50;;;;;;;18.23;100.00;98989.34;105348;1268;69521;-68
2022/08/02 02:47:48;;;;;;;14.10;12.90;;;;;;;18.23;100.00;98987.89;105013;1269;72264;-68
2022/08/02 02:50:17;;;;;;;13.60;12.50;;;;;;;18.24;100.00;98989.21;104914;1269;62277;-69
2022/08/02 02:52:44;;;;;;;14.50;13.10;;;;;;;18.24;100.00;98987.55;105346;1268;62186;-69
2022/08/02 02:55:12;;;;;;;13.20;12.00;;;;;;;18.25;100.00;98986.66;105368;1268;77111;-69
2022/08/02 02:57:39;;;;;;;13.40;12.20;;;;;;;18.25;100.00;98988.43;105362;1268;69333;-71
2022/08/02 03:00:11;;;;;;;13.90;12.60;;;;;;;18.24;100.00;98985.98;105410;1268;74852;-70
2022/08/02 03:02:39;;;;;;;12.40;11.30;;;;;;;18.25;100.00;98989.61;105379;1268;61964;-69
2022/08/02 03:05:07;;;;;;;12.30;11.00;;;;;;;18.25;100.00;98987.65;105117;1268;62412;-70
2022/08/02 03:07:33;;;;;;;13.20;11.90;;;;;;;18.24;100.00;98990.69;105073;1268;77192;-70
2022/08/02 03:10:00;;;;;;;12.70;11.50;;;;;;;18.24;100.00;98989.75;105227;1271;62190;-69
2022/08/02 03:12:28;;;;;;;12.80;11.70;;;;;;;18.24;100.00;98989.25;105228;1271;74340;-70
2022/08/02 03:14:54;;;;;;;13.40;12.20;;;;;;;18.23;100.00;98986.65;104971;1271;62271;-69
2022/08/02 03:17:20;;;;;;;13.70;11.90;;;;;;;18.23;100.00;98987.73;105308;1268;62210;-69
2022/08/02 03:19:46;;;;;;;12.60;11.50;;;;;;;18.21;100.00;98987.19;105233;1268;62589;-69
2022/08/02 03:22:12;;;;;;;12.70;11.20;;;;;;;18.20;100.00;98985.84;105294;1268;62536;-69
2022/08/02 03:24:38;;;;;;;13.30;12.10;;;;;;;18.20;100.00;98987.55;105193;1271;62158;-69
2022/08/02 03:27:04;;;;;;;13.00;11.80;;;;;;;18.21;100.00;98984.66;105240;1271;62290;-69
2022/08/02 03:29:30;;;;;;;13.60;12.20;;;;;;;18.20;100.00;98987.02;105268;1268;62161;-70
2022/08/02 03:31:57;;;;;;;13.30;12.10;;;;;;;18.20;100.00;98993.29;105289;1268;62179;-68
2022/08/02 03:34:22;;;;;;;13.00;11.70;;;;;;;18.22;100.00;98991.22;105270;1268;62153;-69
2022/08/02 03:36:53;;;;;;;12.80;11.60;;;;;;;18.23;100.00;98996.53;105339;1268;62544;-69
2022/08/02 03:39:21;;;;;;;12.90;11.80;;;;;;;18.21;100.00;98994.35;105313;1267;62165;-69
2022/08/02 03:41:49;;;;;;;12.90;11.60;;;;;;;18.20;100.00;98999.64;105301;1271;76257;-69
2022/08/02 03:44:16;;;;;;;13.30;12.10;;;;;;;18.23;100.00;99004.04;105283;1265;69848;-69
2022/08/02 03:46:43;;;;;;;12.10;11.00;;;;;;;18.26;100.00;99006.13;104979;1271;73219;-69
2022/08/02 03:49:11;;;;;;;14.20;11.60;;;;;;;18.29;100.00;99009.97;105154;1268;62195;-69
2022/08/02 03:51:37;;;;;;;12.30;11.20;;;;;;;18.31;100.00;99013.34;105324;1268;62165;-69
2022/08/02 03:54:04;;;;;;;12.80;11.50;;;;;;;18.33;100.00;99015.48;105262;1268;76561;-69
2022/08/02 03:56:31;;;;;;;13.50;12.20;;;;;;;18.36;100.00;99013.73;105254;1268;62167;-70
2022/08/02 03:59:11;;;;;;;12.40;11.20;;;;;;;18.42;100.00;99014.96;105261;1268;62034;-69
2022/08/02 04:01:38;;;;;;;13.70;11.10;;;;;;;18.47;100.00;99014.29;105091;1269;62100;-68
2022/08/02 04:04:05;;;;;;;16.90;12.50;;;;;;;18.53;100.00;99017.60;105259;1268;61983;-68
2022/08/02 04:06:31;;;;;;;12.40;11.20;;;;;;;18.59;100.00;99017.92;105252;1268;77822;-69
2022/08/02 04:08:58;;;;;;;12.80;11.30;;;;;;;18.63;100.00;99024.04;105259;1268;62176;-69
2022/08/02 04:11:29;;;;;;;13.10;11.80;;;;;;;18.64;100.00;99025.30;105246;1268;62187;-69
2022/08/02 04:14:07;;;;;;;14.50;12.80;;;;;;;18.65;100.00;99026.29;105041;1268;62328;-69
2022/08/02 04:16:41;;;;;;;13.60;12.40;;;;;;;18.68;100.00;99025.36;105260;1268;62065;-69
2022/08/02 04:19:12;;;;;;;14.20;12.60;;;;;;;18.69;100.00;99031.29;105293;1268;76391;-69
2022/08/02 04:21:42;;;;;;;14.60;12.70;;;;;;;18.70;100.00;99033.96;105259;1268;70375;-69
2022/08/02 04:24:10;;;;;;;15.00;13.50;;;;;;;18.68;100.00;99035.36;105283;1268;74300;-69
2022/08/02 04:26:37;;;;;;;13.60;12.20;;;;;;;18.68;100.00;99037.69;105358;1268;62055;-69
2022/08/02 04:29:04;;;;;;;14.40;13.10;;;;;;;18.70;100.00;99036.99;105256;1268;62221;-69
2022/08/02 04:31:31;;;;;;;14.90;13.40;;;;;;;18.70;100.00;99040.81;105262;1268;76102;-69
2022/08/02 04:33:57;;;;;;;13.90;12.70;;;;;;;18.71;100.00;99045.20;105161;1268;62117;-70
2022/08/02 04:36:24;;;;;;;13.70;12.50;;;;;;;18.73;100.00;99047.31;105205;1268;74306;-69
2022/08/02 04:38:50;;;;;;;15.10;13.80;;;;;;;18.77;100.00;99048.23;105299;1268;62174;-69
2022/08/02 04:41:16;;;;;;;15.20;13.80;;;;;;;18.80;100.00;99050.37;105249;1268;62065;-68
2022/08/02 04:43:43;;;;;;;15.40;14.00;;;;;;;18.85;100.00;99057.11;105247;1268;62181;-70
2022/08/02 04:46:09;;;;;;;14.70;13.30;;;;;;;18.91;100.00;99060.52;105341;1268;62049;-69
2022/08/02 04:48:35;;;;;;;14.30;13.00;;;;;;;18.97;100.00;99056.39;105241;1268;62171;-69
2022/08/02 04:51:01;;;;;;;14.80;13.50;;;;;;;19.08;100.00;99054.96;105264;1268;62195;-70
2022/08/02 04:53:27;;;;;;;13.30;11.90;;;;;;;19.22;100.00;99054.99;105263;1268;62202;-70
2022/08/02 04:55:53;;;;;;;12.80;11.50;;;;;;;19.41;100.00;99055.98;105275;1268;62010;-69
2022/08/02 04:58:19;;;;;;;13.30;12.00;;;;;;;19.61;100.00;99056.40;105237;1271;62163;-70
2022/08/02 05:00:45;;;;;;;11.90;10.70;;;;;;;19.79;100.00;99056.88;105215;1271;62095;-70
2022/08/02 05:03:11;;;;;;;11.70;10.70;;;;;;;19.98;100.00;99058.51;105258;1271;62063;-70
2022/08/02 05:05:37;;;;;;;13.50;12.20;;;;;;;20.06;100.00;99060.36;104931;1272;62268;-69
2022/08/02 05:08:03;;;;;;;11.70;10.60;;;;;;;20.01;100.00;99060.17;105241;1268;62232;-70
2022/08/02 05:10:29;;;;;;;13.10;12.00;;;;;;;20.05;100.00;99054.68;105254;1268;62091;-69
2022/08/02 05:12:56;;;;;;;14.60;11.20;;;;;;;20.13;100.00;99057.27;105206;1270;62187;-68
2022/08/02 05:15:22;;;;;;;11.40;10.30;;;;;;;20.19;100.00;99051.83;105302;1268;62087;-69
2022/08/02 05:17:48;;;;;;;10.00;9.10;;;;;;;20.37;100.00;99057.14;105237;1268;62152;-69
2022/08/02 05:20:16;;;;;;;10.00;9.10;;;;;;;20.51;100.00;99059.05;105050;1271;62188;-70
2022/08/02 05:22:42;;;;;;;8.60;7.80;;;;;;;20.53;100.00;99064.21;105242;1268;62131;-70
2022/08/02 05:25:09;;;;;;;9.40;8.50;;;;;;;20.46;100.00;99067.13;105071;1268;62345;-70
2022/08/02 05:27:36;;;;;;;9.30;8.50;;;;;;;20.40;100.00;99068.83;105396;1268;62074;-69
2022/08/02 05:30:06;;;;;;;9.80;7.70;;;;;;;20.40;100.00;99070.30;105276;1268;62081;-70
2022/08/02 05:32:32;;;;;;;7.70;7.00;;;;;;;20.38;100.00;99068.52;105254;1268;69800;-70
2022/08/02 05:35:00;;;;;;;7.60;6.80;;;;;;;20.45;100.00;99075.58;105255;1268;62113;-69
2022/08/02 05:37:26;;;;;;;6.10;5.50;;;;;;;20.63;100.00;99076.21;105371;1268;62167;-70
2022/08/02 05:39:52;;;;;;;6.70;5.70;;;;;;;20.80;100.00;99080.83;105247;1268;62093;-70
2022/08/02 05:42:18;;;;;;;7.80;5.90;;;;;;;20.98;100.00;99080.34;105263;1268;62050;-70
2022/08/02 05:44:44;;;;;;;5.60;5.10;;;;;;;21.20;100.00;99078.05;105226;1268;62085;-71
2022/08/02 05:47:10;;;;;;;5.30;4.90;;;;;;;21.36;100.00;99079.80;105302;1268;62068;-70
2022/08/02 05:49:37;;;;;;;6.30;5.70;;;;;;;21.53;100.00;99084.63;105260;1268;62209;-70
2022/08/02 05:52:25;;;;;;;5.90;5.30;;;;;;;21.73;100.00;99083.89;105259;1268;62135;-72
2022/08/02 05:55:05;;;;;;;5.70;5.10;;;;;;;21.85;100.00;99082.98;105268;1268;76929;-72
2022/08/02 05:57:37;;;;;;;4.90;4.50;;;;;;;21.86;100.00;99086.18;105286;1268;69482;-72
2022/08/02 06:00:13;;;;;;;5.60;4.40;;;;;;;21.91;100.00;99091.36;105343;1268;73316;-73
2022/08/02 06:02:42;;;;;;;5.00;4.60;;;;;;;21.99;100.00;99094.27;105361;1268;61986;-72
2022/08/02 06:05:10;;;;;;;6.10;5.40;;;;;;;21.99;100.00;99096.19;105257;1268;62065;-69
2022/08/02 06:07:36;;;;;;;6.60;5.50;;;;;;;21.89;100.00;99100.14;105046;1268;76284;-71
2022/08/02 06:10:07;;;;;;;7.90;6.50;;;;;;;21.81;100.00;99103.06;105289;1268;69297;-71
2022/08/02 06:12:40;;;;;;;6.90;6.30;;;;;;;21.61;100.00;99103.64;105381;1268;74232;-71
2022/08/02 06:15:08;;;;;;;6.80;6.10;;;;;;;21.52;100.00;99105.23;105527;1268;62075;-70
2022/08/02 06:17:35;;;;;;;6.70;6.10;;;;;;;21.42;100.00;99112.77;105140;1268;62248;-70
2022/08/02 06:20:02;;;;;;;7.30;5.20;;;;;;;21.41;100.00;99116.83;105502;1268;77395;-71
2022/08/02 06:22:29;;;;;;;6.50;5.90;;;;;;;21.46;100.00;99120.64;105031;1268;62079;-73
2022/08/02 06:24:57;;;;;;;7.70;6.80;;;;;;;21.31;100.00;99124.79;105298;1268;73252;-70
2022/08/02 06:27:27;;;;;;;7.50;6.50;;;;;;;21.14;100.00;99130.22;105245;1268;62266;-72
2022/08/02 06:29:54;;;;;;;7.10;6.50;;;;;;;21.06;100.00;99134.34;105369;1268;62038;-70
2022/08/02 06:32:20;;;;;;;6.20;5.70;;;;;;;20.91;100.00;99138.21;105503;1268;77405;-71
2022/08/02 06:34:47;;;;;;;6.60;6.00;;;;;;;20.80;100.00;99137.36;105290;1268;68760;-70
2022/08/02 06:37:27;;;;;;;6.30;5.80;;;;;;;20.94;100.00;99140.55;105081;1268;62059;-72
2022/08/02 06:40:02;;;;;;;8.00;5.70;;;;;;;21.10;100.00;99138.79;105472;1268;62062;-72
2022/08/02 06:42:47;;;;;;;5.80;5.40;;;;;;;21.24;100.00;99145.77;105321;1268;62161;-71
2022/08/02 06:45:14;;;;;;;6.70;6.10;;;;;;;21.31;100.00;99148.11;105309;1268;76999;-71
2022/08/02 06:47:40;;;;;;;7.90;7.20;;;;;;;21.30;100.00;99149.16;105324;1267;70303;-71
2022/08/02 06:50:11;;;;;;;6.90;6.30;;;;;;;21.25;100.00;99150.01;105303;1268;62091;-70
2022/08/02 06:52:38;;;;;;;8.90;8.10;;;;;;;21.28;100.00;99145.16;105311;1268;62044;-74
2022/08/02 06:55:05;;;;;;;8.70;7.70;;;;;;;21.51;100.00;99139.85;105327;1268;62167;-72
2022/08/02 06:57:35;;;;;;;8.70;7.70;;;;;;;21.87;100.00;99139.45;105331;1268;77274;-71
2022/08/02 07:02:55;;;;;;;7.70;7.00;;;;;;;22.61;100.00;99133.63;105321;1268;73509;-70
2022/08/02 07:05:21;;;;;;;7.60;7.00;;;;;;;23.20;100.00;99130.64;105246;1268;62087;-70
2022/08/02 07:07:48;;;;;;;8.20;7.50;;;;;;;23.45;100.00;99129.00;105298;1268;62306;-70
2022/08/02 07:10:15;;;;;;;9.00;8.30;;;;;;;23.74;100.00;99131.14;105301;1269;62104;-72
2022/08/02 07:12:41;;;;;;;8.40;7.70;;;;;;;23.96;100.00;99126.27;105273;1268;68787;-70
2022/08/02 07:15:11;;;;;;;7.50;6.90;;;;;;;24.10;100.00;99124.05;105280;1268;62103;-71
2022/08/02 07:17:37;;;;;;;;;;;;;;;24.54;100.00;99120.17;105339;1268;62157;-70
2022/08/02 07:20:04;;;;;;;10.10;9.20;;;;;;;24.82;100.00;99119.23;105265;1268;62861;-71
2022/08/02 07:22:31;;;;;;;9.80;8.50;;;;;;;24.59;100.00;99124.40;105355;1267;77140;-71
2022/08/02 07:24:59;;;;;;;11.20;10.30;;;;;;;24.43;100.00;99123.70;105277;1267;62132;-71
2022/08/02 07:27:25;;;;;;;11.90;10.80;;;;;;;24.15;100.00;99123.94;105276;1268;74519;-70
2022/08/02 07:29:52;;;;;;;14.40;10.30;;;;;;;23.90;100.00;99130.23;105006;1271;62197;-71
2022/08/02 07:32:20;;;;;;;10.80;9.80;;;;;;;24.01;100.00;99125.48;105263;1268;62158;-72
2022/08/02 07:34:48;;;;;;;11.00;9.90;;;;;;;24.29;100.00;99126.01;105304;1268;76959;-72
2022/08/02 07:37:14;;;;;;;11.80;9.30;;;;;;;24.58;100.00;99126.70;105217;1268;69222;-71
2022/08/02 07:39:40;;;;;;;8.80;8.00;;;;;;;24.82;100.00;99123.85;105224;1268;62122;-71
2022/08/02 07:42:06;;;;;;;8.60;7.80;;;;;;;24.92;100.00;99128.83;104910;1269;62199;-72
2022/08/02 07:44:35;;;;;;;7.90;7.20;;;;;;;24.75;100.00;99134.95;105200;1268;62069;-70
2022/08/02 07:47:01;;;;;;;10.00;7.40;;;;;;;24.67;100.00;99137.33;105212;1268;76084;-71
2022/08/02 07:49:29;;;;;;;6.80;6.30;;;;;;;24.78;100.00;99135.70;105287;1268;69319;-70
2022/08/02 07:51:55;;;;;;;6.70;6.20;;;;;;;25.09;100.00;99132.18;105219;1267;74538;-71
2022/08/02 07:54:22;;;;;;;6.60;6.00;;;;;;;25.18;100.00;99132.02;105388;1268;62183;-71
2022/08/02 07:56:48;;;;;;;5.30;4.90;;;;;;;25.23;100.00;99133.16;105210;1268;62072;-72
2022/08/02 07:59:14;;;;;;;5.90;5.40;;;;;;;25.37;100.00;99132.66;105250;1268;62161;-71
2022/08/02 08:01:40;;;;;;;5.90;5.50;;;;;;;25.35;100.00;99134.95;105247;1268;62171;-72
2022/08/02 08:04:06;;;;;;;7.30;6.50;;;;;;;25.51;100.00;99141.15;105044;1268;61992;-71
2022/08/02 08:06:33;;;;;;;6.60;6.10;;;;;;;25.58;100.00;99135.80;105225;1268;62170;-71
2022/08/02 08:08:59;;;;;;;7.60;6.80;;;;;;;25.68;100.00;99139.12;105274;1268;62144;-71
2022/08/02 08:11:26;;;;;;;6.70;6.20;;;;;;;25.69;100.00;99141.86;105266;1268;62180;-71
2022/08/02 08:13:52;;;;;;;6.90;6.30;;;;;;;25.97;100.00;99140.52;105193;1271;61967;-73
2022/08/02 08:16:19;;;;;;;7.00;6.50;;;;;;;26.13;100.00;99144.42;105215;1270;62188;-71
2022/08/02 08:18:45;;;;;;;7.70;6.70;;;;;;;25.95;100.00;99144.95;105251;1268;62075;-71
2022/08/02 08:21:11;;;;;;;7.80;7.00;;;;;;;25.66;100.00;99148.59;105164;1271;62171;-71
2022/08/02 08:23:37;;;;;;;7.50;6.80;;;;;;;25.43;100.00;99148.95;105284;1268;62566;-72
2022/08/02 08:26:03;;;;;;;7.20;6.50;;;;;;;25.31;100.00;99143.67;105250;1268;62075;-72
2022/08/02 08:28:29;;;;;;;6.70;6.30;;;;;;;25.21;100.00;99148.56;105239;1268;62176;-72
2022/08/02 08:30:55;;;;;;;7.20;6.60;;;;;;;24.90;100.00;99150.75;105239;1268;62151;-71
2022/08/02 08:33:21;;;;;;;6.40;5.90;;;;;;;25.07;100.00;99150.63;105253;1268;75979;-71
2022/08/02 08:35:47;;;;;;;6.50;6.00;;;;;;;25.49;100.00;99152.92;105203;1268;62160;-71
2022/08/02 08:38:14;;;;;;;6.70;6.10;;;;;;;25.62;100.00;99155.14;105273;1268;62186;-72
2022/08/02 08:40:41;;;;;;;6.60;6.20;;;;;;;25.32;100.00;99154.98;105244;1268;62174;-71
2022/08/02 08:43:07;;;;;;;6.50;6.10;;;;;;;25.32;100.00;99153.63;105237;1268;61955;-72
2022/08/02 08:45:33;;;;;;;6.60;6.10;;;;;;;25.87;100.00;99156.52;105248;1268;62244;-71
2022/08/02 08:48:05;;;;;;;6.50;6.10;;;;;;;26.42;100.00;99155.42;105236;1268;62534;-72
2022/08/02 08:50:34;;;;;;;6.40;6.00;;;;;;;26.69;100.00;99159.36;105234;1268;73761;-72
2022/08/02 08:53:05;;;;;;;7.70;6.50;;;;;;;26.88;100.00;99151.22;105242;1268;62076;-72
2022/08/02 08:55:35;;;;;;;6.90;6.00;;;;;;;27.12;100.00;99149.45;105320;1268;62101;-71
2022/08/02 08:58:03;;;;;;;6.50;6.10;;;;;;;27.16;100.00;99145.06;105293;1267;77272;-71
2022/08/02 09:00:31;;;;;;;7.20;6.70;;;;;;;27.03;100.00;99146.39;105294;1268;69636;-71
2022/08/02 09:03:04;;;;;;;7.10;6.40;;;;;;;26.70;100.00;99150.34;105303;1268;73279;-71
2022/08/02 09:05:32;;;;;;;7.70;7.10;;;;;;;26.48;100.00;99154.11;105353;1268;62158;-71
2022/08/02 09:07:58;;;;;;;9.40;8.70;;;;;;;26.39;100.00;99159.13;105268;1271;62055;-71
2022/08/02 09:10:38;;;;;;;9.40;8.70;;;;;;;26.32;100.00;99160.69;105224;1268;62536;-70
2022/08/02 09:13:12;;;;;;;9.80;8.90;;;;;;;25.83;100.00;99163.00;105053;1271;68540;-71
2022/08/02 09:15:40;;;;;;;9.30;8.50;;;;;;;25.35;100.00;99158.58;105263;1270;73510;-72
2022/08/02 09:18:07;;;;;;;8.40;7.80;;;;;;;25.05;100.00;99162.91;105306;1268;62087;-71
2022/08/02 09:20:35;;;;;;;10.50;9.60;;;;;;;24.83;100.00;99162.66;105052;1271;62486;-72
2022/08/02 09:23:06;;;;;;;8.40;7.60;;;;;;;24.66;100.00;99164.38;105285;1271;76481;-71
2022/08/02 09:25:33;;;;;;;9.00;8.30;;;;;;;24.77;100.00;99161.95;105230;1271;69272;-71
2022/08/02 09:27:59;;;;;;;10.80;9.10;;;;;;;25.08;100.00;99162.88;105214;1269;62166;-71
2022/08/02 09:30:25;;;;;;;9.60;8.90;;;;;;;25.46;100.00;99163.31;105232;1268;62106;-71
2022/08/02 09:32:52;;;;;;;8.80;8.20;;;;;;;25.85;100.00;99158.61;105302;1271;62171;-72
2022/08/02 09:35:36;;;;;;;9.40;8.50;;;;;;;26.16;100.00;99161.13;105215;1269;62068;-72
2022/08/02 09:38:11;;;;;;;9.70;8.90;;;;;;;26.18;100.00;99161.48;105240;1268;69701;-71
2022/08/02 09:40:39;;;;;;;7.90;7.20;;;;;;;26.10;100.00;99160.00;105217;1271;72702;-71
2022/08/02 09:43:07;;;;;;;8.80;8.10;;;;;;;25.92;100.00;99161.16;105278;1268;61983;-71
2022/08/02 09:45:34;;;;;;;9.50;8.70;;;;;;;25.75;100.00;99163.64;104901;1268;533461;-71
2022/08/02 09:48:09;;;;;;;8.50;7.90;;;;;;;25.65;100.00;99167.56;105244;1268;76914;-71
2022/08/02 09:50:37;;;;;;;8.80;8.10;;;;;;;25.47;100.00;99166.17;105275;1268;70168;-71
2022/08/02 09:53:03;;;;;;;9.40;8.70;;;;;;;25.39;100.00;99161.14;105249;1268;74314;-71
2022/08/02 09:55:29;;;;;;;9.10;8.20;;;;;;;25.27;100.00;99161.48;105255;1268;62139;-71
2022/08/02 09:57:55;;;;;;;8.90;8.30;;;;;;;25.16;100.00;99166.41;105267;1268;62215;-71
2022/08/02 10:00:21;;;;;;;8.90;8.20;;;;;;;25.17;100.00;99161.34;105218;1271;62042;-71
2022/08/02 10:03:11;;;;;;;9.10;8.20;;;;;;;25.40;100.00;99156.70;105280;1271;62160;-71
2022/08/02 10:05:52;;;;;;;8.40;7.80;;;;;;;25.61;100.00;99157.95;104458;1277;73712;-71
2022/08/02 10:08:20;;;;;;;8.80;8.10;;;;;;;25.69;100.00;99157.70;104682;1277;62154;-71
2022/08/02 10:10:47;;;;;;;8.90;8.00;;;;;;;26.02;100.00;99158.45;104874;1277;62105;-72
2022/08/02 10:13:14;;;;;;;7.80;7.20;;;;;;;26.31;100.00;99155.27;104793;1276;76520;-72
2022/08/02 10:15:41;;;;;;;9.20;8.40;;;;;;;26.30;100.00;99153.02;104867;1277;69499;-72
2022/08/02 10:18:09;;;;;;;8.90;8.10;;;;;;;25.91;100.00;99145.39;104631;1277;62467;-70
2022/08/02 10:20:43;;;;;;;8.90;8.10;;;;;;;25.73;100.00;99146.81;104830;1277;62156;-71
2022/08/02 10:23:12;;;;;;;8.90;8.00;;;;;;;25.81;100.00;99149.81;104733;1277;62233;-71
2022/08/02 10:25:39;;;;;;;7.80;7.30;;;;;;;25.69;100.00;99146.23;104502;1277;74570;-72
2022/08/02 10:28:06;;;;;;;8.60;7.80;;;;;;;25.59;100.00;99148.41;104661;1277;67569;-70
2022/08/02 10:30:38;;;;;;;9.30;8.40;;;;;;;25.75;100.00;99145.70;104731;1277;73373;-71
2022/08/02 10:33:07;;;;;;;8.00;7.40;;;;;;;25.98;100.00;99142.58;104803;1277;62077;-71
2022/08/02 10:35:37;;;;;;;9.10;8.40;;;;;;;26.37;100.00;99144.15;104875;1277;62343;-72
2022/08/02 10:38:08;;;;;;;7.70;7.00;;;;;;;26.65;100.00;99141.02;104601;1277;76093;-71
2022/08/02 10:40:47;;;;;;;8.10;7.40;;;;;;;26.52;100.00;99141.31;104824;1277;70364;-70
2022/08/02 10:43:35;;;;;;;7.10;6.60;;;;;;;26.37;100.00;99138.56;104971;1271;74547;-72
2022/08/02 10:46:29;;;;;;;7.80;7.00;;;;;;;26.59;100.00;99133.84;105262;1269;62180;-71
2022/08/02 10:49:09;;;;;;;7.60;6.90;;;;;;;26.61;100.00;99136.00;105332;1268;62104;-71
2022/08/02 10:51:53;;;;;;;;;;;;;;;26.44;100.00;99137.39;105360;1268;74951;-73
2022/08/02 10:54:25;;;;;;;6.10;5.60;;;;;;;26.42;100.00;99137.13;105406;1268;69279;-71
2022/08/02 10:56:54;;;;;;;7.70;7.00;;;;;;;26.63;100.00;99135.40;105577;1268;73290;-72
2022/08/02 10:59:37;;;;;;;6.70;6.20;;;;;;;26.77;100.00;99134.21;105288;1271;62085;-71
2022/08/02 11:02:05;;;;;;;7.00;6.40;;;;;;;26.97;100.00;99131.01;105371;1268;62075;-71
2022/08/02 11:04:40;;;;;;;8.00;7.30;;;;;;;27.00;100.00;99125.38;105393;1268;77877;-72
2022/08/02 11:07:09;;;;;;;7.10;6.30;;;;;;;27.01;100.00;99124.53;105286;1271;70363;-72
2022/08/02 11:09:35;;;;;;;7.70;7.10;;;;;;;27.12;100.00;99121.17;105273;1269;73994;-72
2022/08/02 11:12:12;;;;;;;7.30;6.40;;;;;;;27.18;100.00;99125.44;105302;1271;62512;-73
2022/08/02 11:14:41;;;;;;;6.80;6.30;;;;;;;26.91;100.00;99125.77;105308;1268;61985;-72
2022/08/02 11:17:09;;;;;;;12.20;7.60;;;;;;;26.71;100.00;99127.38;105310;1268;75547;-71
2022/08/02 11:20:07;;;;;;;7.20;6.10;;;;;;;26.32;100.00;99132.23;105331;1268;70422;-72